Aérodrome :
LOGIN :

S'inscrire | Disclaimer

   EN    FR    IT 

 










Légende :    VFR   VFR Marginal   IFR   IFR Intensif   IFR Très Intensif
Visi : 
Plafond : 
>= 8 km
>= 3000ft
5 à 8 km
1000 à 3000 ft
1500m à 5 km
500 à 1000 ft
800 à 1500m
200 à 500 ft
< 800m
< 200 ft
Symboles :   Orages  Brouillard  Fortes neiges  Fortes précipitations  Vent > 20 kt
SIGMETs :   Divers  Orages  Givrage  Turbulence  Onde Orograph.  Cendres Volcan.







- Altitude de l'aérodrome : 53 ft
- Code IATA : LBC


EDHL - Lübeck

DERNIER METAR :
  • 181350Z 27015G28KT 240V320 9999 SCT027 07/02 Q1009

METARs EXPIRÉS :
  • 181320Z 27016G26KT 240V300 9999 VCSH SCT030CB 07/01 Q1008
  • 181250Z 27014G26KT 240V300 9999 SCT030 07/02 Q1008
  • 181220Z 27015G25KT 240V310 9999 SCT030 07/01 Q1008
  • 181150Z 26015G27KT 9999 BKN025 08/02 Q1007
  • 181120Z 26014G24KT 9999 BKN022 07/03 Q1007

TAF TAF EDHL
Valide du 18 à 12h jusqu'au 18 à 21h UTC


181100Z 1812/1821 28020G35KT 9999 SCT020
TEMPO 1812/1816 SHRA BKN020CB
BECMG 1814/1816 28015G30KT
BECMG 1816/1818 28011KT
Pas de NOTAMs connus pour ce terrain.



MET'MAP, la Météo Aéronautique d'un coup d'oeil ! - Copyright ORBIFLY Décembre 2007 - Disclaimer

ORBIFLY MET'MAP TEAM :

Programmation & Développement : Alexandra Zaïnal
Conception & Développement : Baudouin d'Aumeries
Co-Programmation & Développement : Marc-Olivier Méhu
Soutien technique & logistique : Manuel Goepfert

Contact : metmap@orbifly.com




SOURCES & CREDITS :

   NOAA